sensor_id;sensor_type;location;lat;lon;timestamp;P1;durP1;ratioP1;P2;durP2;ratioP2
2762;SDS011;1389;51.490;7.338;2024-02-23T00:01:43;1999.90;;;999.90;;
2762;SDS011;1389;51.490;7.338;2024-02-23T00:04:10;1999.90;;;999.90;;
2762;SDS011;1389;51.490;7.338;2024-02-23T00:06:37;1999.90;;;999.90;;
2762;SDS011;1389;51.490;7.338;2024-02-23T00:09:03;1999.90;;;999.90;;
2762;SDS011;1389;51.490;7.338;2024-02-23T00:11:30;1999.90;;;999.90;;
2762;SDS011;1389;51.490;7.338;2024-02-23T00:13:58;1999.90;;;999.90;;
2762;SDS011;1389;51.490;7.338;2024-02-23T00:16:24;1999.90;;;999.90;;
2762;SDS011;1389;51.490;7.338;2024-02-23T00:18:51;1999.90;;;999.90;;
2762;SDS011;1389;51.490;7.338;2024-02-23T00:21:18;1999.90;;;999.90;;
2762;SDS011;1389;51.490;7.338;2024-02-23T00:23:44;1999.90;;;999.90;;
2762;SDS011;1389;51.490;7.338;2024-02-23T00:26:11;1999.90;;;999.90;;
2762;SDS011;1389;51.490;7.338;2024-02-23T00:28:37;1999.90;;;999.90;;
2762;SDS011;1389;51.490;7.338;2024-02-23T00:31:03;1999.90;;;999.90;;
2762;SDS011;1389;51.490;7.338;2024-02-23T00:33:30;1999.90;;;999.90;;
2762;SDS011;1389;51.490;7.338;2024-02-23T00:35:56;1999.90;;;999.90;;
2762;SDS011;1389;51.490;7.338;2024-02-23T00:38:22;1999.90;;;999.90;;
2762;SDS011;1389;51.490;7.338;2024-02-23T00:40:49;1999.90;;;999.90;;
2762;SDS011;1389;51.490;7.338;2024-02-23T00:43:15;1999.90;;;999.90;;
2762;SDS011;1389;51.490;7.338;2024-02-23T00:45:42;1999.90;;;999.90;;
2762;SDS011;1389;51.490;7.338;2024-02-23T00:48:08;1999.90;;;999.90;;
2762;SDS011;1389;51.490;7.338;2024-02-23T00:50:35;1999.90;;;999.90;;
2762;SDS011;1389;51.490;7.338;2024-02-23T00:53:01;1999.90;;;999.90;;
2762;SDS011;1389;51.490;7.338;2024-02-23T00:55:27;1999.90;;;999.90;;
2762;SDS011;1389;51.490;7.338;2024-02-23T00:57:54;1999.90;;;999.90;;
2762;SDS011;1389;51.490;7.338;2024-02-23T01:00:20;1999.90;;;999.90;;
2762;SDS011;1389;51.490;7.338;2024-02-23T01:02:47;1999.90;;;999.90;;
2762;SDS011;1389;51.490;7.338;2024-02-23T01:05:13;1999.90;;;999.90;;
2762;SDS011;1389;51.490;7.338;2024-02-23T01:07:39;1999.90;;;999.90;;
2762;SDS011;1389;51.490;7.338;2024-02-23T01:10:06;1999.90;;;999.90;;
2762;SDS011;1389;51.490;7.338;2024-02-23T01:12:32;1999.90;;;999.90;;
2762;SDS011;1389;51.490;7.338;2024-02-23T01:14:59;1999.90;;;999.90;;
2762;SDS011;1389;51.490;7.338;2024-02-23T01:17:25;1999.90;;;999.90;;
2762;SDS011;1389;51.490;7.338;2024-02-23T01:19:51;1999.90;;;999.90;;
2762;SDS011;1389;51.490;7.338;2024-02-23T01:22:18;1999.90;;;999.90;;
2762;SDS011;1389;51.490;7.338;2024-02-23T01:24:44;1999.90;;;999.90;;
2762;SDS011;1389;51.490;7.338;2024-02-23T01:27:11;1999.90;;;999.90;;
2762;SDS011;1389;51.490;7.338;2024-02-23T01:29:37;1999.90;;;999.90;;
2762;SDS011;1389;51.490;7.338;2024-02-23T01:32:03;1999.90;;;999.90;;
2762;SDS011;1389;51.490;7.338;2024-02-23T01:34:30;1999.90;;;999.90;;
2762;SDS011;1389;51.490;7.338;2024-02-23T01:36:56;1999.90;;;999.90;;
2762;SDS011;1389;51.490;7.338;2024-02-23T01:39:23;1999.90;;;999.90;;
2762;SDS011;1389;51.490;7.338;2024-02-23T01:41:49;1999.90;;;999.90;;
2762;SDS011;1389;51.490;7.338;2024-02-23T01:44:15;1999.90;;;999.90;;
2762;SDS011;1389;51.490;7.338;2024-02-23T01:46:43;1999.90;;;999.90;;
2762;SDS011;1389;51.490;7.338;2024-02-23T01:49:09;1999.90;;;999.90;;
2762;SDS011;1389;51.490;7.338;2024-02-23T01:51:36;1999.90;;;999.90;;
2762;SDS011;1389;51.490;7.338;2024-02-23T01:54:02;1999.90;;;999.90;;
2762;SDS011;1389;51.490;7.338;2024-02-23T01:56:29;1999.90;;;999.90;;
2762;SDS011;1389;51.490;7.338;2024-02-23T01:58:56;1999.90;;;999.90;;
2762;SDS011;1389;51.490;7.338;2024-02-23T02:01:23;1999.90;;;999.90;;
2762;SDS011;1389;51.490;7.338;2024-02-23T02:03:50;1999.90;;;999.90;;
2762;SDS011;1389;51.490;7.338;2024-02-23T02:06:17;1999.90;;;999.90;;
2762;SDS011;1389;51.490;7.338;2024-02-23T02:08:43;1999.90;;;999.90;;
2762;SDS011;1389;51.490;7.338;2024-02-23T02:11:10;1999.90;;;999.90;;
2762;SDS011;1389;51.490;7.338;2024-02-23T02:13:36;1999.90;;;999.90;;
2762;SDS011;1389;51.490;7.338;2024-02-23T02:16:02;1999.90;;;999.90;;
2762;SDS011;1389;51.490;7.338;2024-02-23T02:18:29;1999.90;;;999.90;;
2762;SDS011;1389;51.490;7.338;2024-02-23T02:20:56;1999.90;;;999.90;;
2762;SDS011;1389;51.490;7.338;2024-02-23T02:23:23;1999.90;;;999.90;;
2762;SDS011;1389;51.490;7.338;2024-02-23T02:25:53;1999.90;;;999.90;;
2762;SDS011;1389;51.490;7.338;2024-02-23T02:28:20;1999.90;;;999.90;;
2762;SDS011;1389;51.490;7.338;2024-02-23T02:30:46;1999.90;;;999.90;;
2762;SDS011;1389;51.490;7.338;2024-02-23T02:33:12;1999.90;;;999.90;;
2762;SDS011;1389;51.490;7.338;2024-02-23T02:35:39;1999.90;;;999.90;;
2762;SDS011;1389;51.490;7.338;2024-02-23T02:38:05;1999.90;;;999.90;;
2762;SDS011;1389;51.490;7.338;2024-02-23T02:40:31;1999.90;;;999.90;;
2762;SDS011;1389;51.490;7.338;2024-02-23T02:42:58;1999.90;;;999.90;;
2762;SDS011;1389;51.490;7.338;2024-02-23T02:45:24;1999.90;;;999.90;;
2762;SDS011;1389;51.490;7.338;2024-02-23T02:47:51;1999.90;;;999.90;;
2762;SDS011;1389;51.490;7.338;2024-02-23T02:50:17;1999.90;;;999.90;;
2762;SDS011;1389;51.490;7.338;2024-02-23T02:52:43;1999.90;;;999.90;;
2762;SDS011;1389;51.490;7.338;2024-02-23T02:55:10;1999.90;;;999.90;;
2762;SDS011;1389;51.490;7.338;2024-02-23T02:57:36;1999.90;;;999.90;;
2762;SDS011;1389;51.490;7.338;2024-02-23T03:00:03;1999.90;;;999.90;;
2762;SDS011;1389;51.490;7.338;2024-02-23T03:02:34;1999.90;;;999.90;;
2762;SDS011;1389;51.490;7.338;2024-02-23T03:05:01;1999.90;;;999.90;;
2762;SDS011;1389;51.490;7.338;2024-02-23T03:07:27;1999.90;;;999.90;;
2762;SDS011;1389;51.490;7.338;2024-02-23T03:09:53;1999.90;;;999.90;;
2762;SDS011;1389;51.490;7.338;2024-02-23T03:12:20;1999.90;;;999.90;;
2762;SDS011;1389;51.490;7.338;2024-02-23T03:14:46;1999.90;;;999.90;;
2762;SDS011;1389;51.490;7.338;2024-02-23T03:17:13;1999.90;;;999.90;;
2762;SDS011;1389;51.490;7.338;2024-02-23T03:19:39;1999.90;;;999.90;;
2762;SDS011;1389;51.490;7.338;2024-02-23T03:22:05;1999.90;;;999.90;;
2762;SDS011;1389;51.490;7.338;2024-02-23T03:24:32;1999.90;;;999.90;;
2762;SDS011;1389;51.490;7.338;2024-02-23T03:26:58;1999.90;;;999.90;;
2762;SDS011;1389;51.490;7.338;2024-02-23T03:29:25;1999.90;;;999.90;;
2762;SDS011;1389;51.490;7.338;2024-02-23T03:31:57;1999.90;;;999.90;;
2762;SDS011;1389;51.490;7.338;2024-02-23T03:34:24;1999.90;;;999.90;;
2762;SDS011;1389;51.490;7.338;2024-02-23T03:36:51;1999.90;;;999.90;;
2762;SDS011;1389;51.490;7.338;2024-02-23T03:39:17;1999.90;;;999.90;;
2762;SDS011;1389;51.490;7.338;2024-02-23T03:41:43;1999.90;;;999.90;;
2762;SDS011;1389;51.490;7.338;2024-02-23T03:44:10;1999.90;;;999.90;;
2762;SDS011;1389;51.490;7.338;2024-02-23T03:46:36;1999.90;;;999.90;;
2762;SDS011;1389;51.490;7.338;2024-02-23T03:49:03;1999.90;;;999.90;;
2762;SDS011;1389;51.490;7.338;2024-02-23T03:51:29;1999.90;;;999.90;;
2762;SDS011;1389;51.490;7.338;2024-02-23T03:53:57;1999.90;;;999.90;;
2762;SDS011;1389;51.490;7.338;2024-02-23T03:56:24;1999.90;;;999.90;;
2762;SDS011;1389;51.490;7.338;2024-02-23T03:58:50;1999.90;;;999.90;;
2762;SDS011;1389;51.490;7.338;2024-02-23T04:01:16;1999.90;;;999.90;;
2762;SDS011;1389;51.490;7.338;2024-02-23T04:03:43;1999.90;;;999.90;;
2762;SDS011;1389;51.490;7.338;2024-02-23T04:06:09;1999.90;;;999.90;;
2762;SDS011;1389;51.490;7.338;2024-02-23T04:08:36;1999.90;;;999.90;;
2762;SDS011;1389;51.490;7.338;2024-02-23T04:11:02;1999.90;;;999.90;;
2762;SDS011;1389;51.490;7.338;2024-02-23T04:13:29;1999.90;;;999.90;;
2762;SDS011;1389;51.490;7.338;2024-02-23T04:15:55;1999.90;;;999.90;;
2762;SDS011;1389;51.490;7.338;2024-02-23T04:18:22;1999.90;;;999.90;;
2762;SDS011;1389;51.490;7.338;2024-02-23T04:20:49;1999.90;;;999.90;;
2762;SDS011;1389;51.490;7.338;2024-02-23T04:23:15;1999.90;;;999.90;;
2762;SDS011;1389;51.490;7.338;2024-02-23T04:25:42;1999.90;;;999.90;;
2762;SDS011;1389;51.490;7.338;2024-02-23T04:28:08;1999.90;;;999.90;;
2762;SDS011;1389;51.490;7.338;2024-02-23T04:30:34;1999.90;;;999.90;;
2762;SDS011;1389;51.490;7.338;2024-02-23T04:33:01;1999.90;;;999.90;;
2762;SDS011;1389;51.490;7.338;2024-02-23T04:35:27;1999.90;;;999.90;;
2762;SDS011;1389;51.490;7.338;2024-02-23T04:37:53;1999.90;;;999.90;;
2762;SDS011;1389;51.490;7.338;2024-02-23T04:40:20;1999.90;;;999.90;;
2762;SDS011;1389;51.490;7.338;2024-02-23T04:42:46;1999.90;;;999.90;;
2762;SDS011;1389;51.490;7.338;2024-02-23T04:45:13;1999.90;;;999.90;;
2762;SDS011;1389;51.490;7.338;2024-02-23T04:47:39;1999.90;;;999.90;;
2762;SDS011;1389;51.490;7.338;2024-02-23T04:50:06;1999.90;;;999.90;;
2762;SDS011;1389;51.490;7.338;2024-02-23T04:52:32;1999.90;;;999.90;;
2762;SDS011;1389;51.490;7.338;2024-02-23T04:54:59;1999.90;;;999.90;;
2762;SDS011;1389;51.490;7.338;2024-02-23T04:57:25;1999.90;;;999.90;;
2762;SDS011;1389;51.490;7.338;2024-02-23T04:59:51;1999.90;;;999.90;;
2762;SDS011;1389;51.490;7.338;2024-02-23T05:02:18;1999.90;;;999.90;;
2762;SDS011;1389;51.490;7.338;2024-02-23T05:04:44;1999.90;;;999.90;;
2762;SDS011;1389;51.490;7.338;2024-02-23T05:07:10;1999.90;;;999.90;;
2762;SDS011;1389;51.490;7.338;2024-02-23T05:09:37;1999.90;;;999.90;;
2762;SDS011;1389;51.490;7.338;2024-02-23T05:12:04;1999.90;;;999.90;;
2762;SDS011;1389;51.490;7.338;2024-02-23T05:14:30;1999.90;;;999.90;;
2762;SDS011;1389;51.490;7.338;2024-02-23T05:16:57;1999.90;;;999.90;;
2762;SDS011;1389;51.490;7.338;2024-02-23T05:19:23;1999.90;;;999.90;;
2762;SDS011;1389;51.490;7.338;2024-02-23T05:21:49;1999.90;;;999.90;;
2762;SDS011;1389;51.490;7.338;2024-02-23T05:24:16;1999.90;;;999.90;;
2762;SDS011;1389;51.490;7.338;2024-02-23T05:26:42;1999.90;;;999.90;;
2762;SDS011;1389;51.490;7.338;2024-02-23T05:29:09;1999.90;;;999.90;;
2762;SDS011;1389;51.490;7.338;2024-02-23T05:31:45;1999.90;;;999.90;;
2762;SDS011;1389;51.490;7.338;2024-02-23T05:34:12;1999.90;;;999.90;;
2762;SDS011;1389;51.490;7.338;2024-02-23T05:36:38;1999.90;;;999.90;;
2762;SDS011;1389;51.490;7.338;2024-02-23T05:39:05;1999.90;;;999.90;;
2762;SDS011;1389;51.490;7.338;2024-02-23T05:41:33;1999.90;;;999.90;;
2762;SDS011;1389;51.490;7.338;2024-02-23T05:43:59;1999.90;;;999.90;;
2762;SDS011;1389;51.490;7.338;2024-02-23T05:46:26;1999.90;;;999.90;;
2762;SDS011;1389;51.490;7.338;2024-02-23T05:48:52;1999.90;;;999.90;;
2762;SDS011;1389;51.490;7.338;2024-02-23T05:51:19;1999.90;;;999.90;;
2762;SDS011;1389;51.490;7.338;2024-02-23T05:53:45;1999.90;;;999.90;;
2762;SDS011;1389;51.490;7.338;2024-02-23T05:56:12;1999.90;;;999.90;;
2762;SDS011;1389;51.490;7.338;2024-02-23T05:58:38;1999.90;;;999.90;;
2762;SDS011;1389;51.490;7.338;2024-02-23T06:01:05;1999.90;;;999.90;;
2762;SDS011;1389;51.490;7.338;2024-02-23T06:03:32;1999.90;;;999.90;;
2762;SDS011;1389;51.490;7.338;2024-02-23T06:05:59;1999.90;;;999.90;;
2762;SDS011;1389;51.490;7.338;2024-02-23T06:08:26;1999.90;;;999.90;;
2762;SDS011;1389;51.490;7.338;2024-02-23T06:10:52;1999.90;;;999.90;;
2762;SDS011;1389;51.490;7.338;2024-02-23T06:13:18;1999.90;;;999.90;;
2762;SDS011;1389;51.490;7.338;2024-02-23T06:15:45;1999.90;;;999.90;;
2762;SDS011;1389;51.490;7.338;2024-02-23T06:18:11;1999.90;;;999.90;;
2762;SDS011;1389;51.490;7.338;2024-02-23T06:20:37;1999.90;;;999.90;;
2762;SDS011;1389;51.490;7.338;2024-02-23T06:23:04;1999.90;;;999.90;;
2762;SDS011;1389;51.490;7.338;2024-02-23T06:25:30;1999.90;;;999.90;;
2762;SDS011;1389;51.490;7.338;2024-02-23T06:27:57;1999.90;;;999.90;;
2762;SDS011;1389;51.490;7.338;2024-02-23T06:30:24;1999.90;;;999.90;;
2762;SDS011;1389;51.490;7.338;2024-02-23T06:32:50;1999.90;;;999.90;;
2762;SDS011;1389;51.490;7.338;2024-02-23T06:35:16;1999.90;;;999.90;;
2762;SDS011;1389;51.490;7.338;2024-02-23T06:37:43;1999.90;;;999.90;;
2762;SDS011;1389;51.490;7.338;2024-02-23T06:40:10;1999.90;;;999.90;;
2762;SDS011;1389;51.490;7.338;2024-02-23T06:42:36;1999.90;;;999.90;;
2762;SDS011;1389;51.490;7.338;2024-02-23T06:45:02;1999.90;;;999.90;;
2762;SDS011;1389;51.490;7.338;2024-02-23T06:47:29;1999.90;;;999.90;;
2762;SDS011;1389;51.490;7.338;2024-02-23T06:49:55;1999.90;;;999.90;;
2762;SDS011;1389;51.490;7.338;2024-02-23T06:52:22;1999.90;;;999.90;;
2762;SDS011;1389;51.490;7.338;2024-02-23T06:54:48;1999.90;;;999.90;;
2762;SDS011;1389;51.490;7.338;2024-02-23T06:57:15;1999.90;;;999.90;;
2762;SDS011;1389;51.490;7.338;2024-02-23T06:59:41;1999.90;;;999.90;;
2762;SDS011;1389;51.490;7.338;2024-02-23T07:02:08;1999.90;;;999.90;;
2762;SDS011;1389;51.490;7.338;2024-02-23T07:04:35;1999.90;;;999.90;;
2762;SDS011;1389;51.490;7.338;2024-02-23T07:07:01;1999.90;;;999.90;;
2762;SDS011;1389;51.490;7.338;2024-02-23T07:09:35;1999.90;;;999.90;;
2762;SDS011;1389;51.490;7.338;2024-02-23T07:12:01;1999.90;;;999.90;;
2762;SDS011;1389;51.490;7.338;2024-02-23T07:14:28;1999.90;;;999.90;;
2762;SDS011;1389;51.490;7.338;2024-02-23T07:16:54;1999.90;;;999.90;;
2762;SDS011;1389;51.490;7.338;2024-02-23T07:19:21;1999.90;;;999.90;;
2762;SDS011;1389;51.490;7.338;2024-02-23T07:21:47;1999.90;;;999.90;;
2762;SDS011;1389;51.490;7.338;2024-02-23T07:24:13;1999.90;;;999.90;;
2762;SDS011;1389;51.490;7.338;2024-02-23T07:26:40;1999.90;;;999.90;;
2762;SDS011;1389;51.490;7.338;2024-02-23T07:29:07;1999.90;;;999.90;;
2762;SDS011;1389;51.490;7.338;2024-02-23T07:31:33;1999.90;;;999.90;;
2762;SDS011;1389;51.490;7.338;2024-02-23T07:33:59;1999.90;;;999.90;;
2762;SDS011;1389;51.490;7.338;2024-02-23T07:36:26;1999.90;;;999.90;;
2762;SDS011;1389;51.490;7.338;2024-02-23T07:38:53;1999.90;;;999.90;;
2762;SDS011;1389;51.490;7.338;2024-02-23T07:41:20;1999.90;;;999.90;;
2762;SDS011;1389;51.490;7.338;2024-02-23T07:43:46;1999.90;;;999.90;;
2762;SDS011;1389;51.490;7.338;2024-02-23T07:46:13;1999.90;;;999.90;;
2762;SDS011;1389;51.490;7.338;2024-02-23T07:48:39;1999.90;;;999.90;;
2762;SDS011;1389;51.490;7.338;2024-02-23T07:51:05;1999.90;;;999.90;;
2762;SDS011;1389;51.490;7.338;2024-02-23T07:53:32;1784.80;;;999.90;;
2762;SDS011;1389;51.490;7.338;2024-02-23T07:55:59;1999.90;;;999.90;;
2762;SDS011;1389;51.490;7.338;2024-02-23T07:58:27;1352.50;;;999.90;;
2762;SDS011;1389;51.490;7.338;2024-02-23T08:00:54;1999.90;;;999.90;;
2762;SDS011;1389;51.490;7.338;2024-02-23T08:03:20;1999.90;;;999.90;;
2762;SDS011;1389;51.490;7.338;2024-02-23T08:05:47;1999.90;;;999.90;;
2762;SDS011;1389;51.490;7.338;2024-02-23T08:08:13;1999.90;;;999.90;;
2762;SDS011;1389;51.490;7.338;2024-02-23T08:10:39;1999.90;;;999.90;;
2762;SDS011;1389;51.490;7.338;2024-02-23T08:13:06;1999.90;;;999.90;;
2762;SDS011;1389;51.490;7.338;2024-02-23T08:15:33;1999.90;;;999.90;;
2762;SDS011;1389;51.490;7.338;2024-02-23T08:18:01;1999.90;;;999.90;;
2762;SDS011;1389;51.490;7.338;2024-02-23T08:20:28;1999.90;;;999.90;;
2762;SDS011;1389;51.490;7.338;2024-02-23T08:22:54;1999.90;;;999.90;;
2762;SDS011;1389;51.490;7.338;2024-02-23T08:25:20;1999.90;;;999.90;;
2762;SDS011;1389;51.490;7.338;2024-02-23T08:27:47;1999.90;;;999.90;;
2762;SDS011;1389;51.490;7.338;2024-02-23T08:30:14;1999.90;;;999.90;;
2762;SDS011;1389;51.490;7.338;2024-02-23T08:32:40;1999.90;;;999.90;;
2762;SDS011;1389;51.490;7.338;2024-02-23T08:35:07;1999.90;;;999.90;;
2762;SDS011;1389;51.490;7.338;2024-02-23T08:37:34;1999.90;;;999.90;;
2762;SDS011;1389;51.490;7.338;2024-02-23T08:40:00;1999.90;;;999.90;;
2762;SDS011;1389;51.490;7.338;2024-02-23T08:42:27;1534.93;;;999.90;;
2762;SDS011;1389;51.490;7.338;2024-02-23T08:44:54;1999.90;;;999.90;;
2762;SDS011;1389;51.490;7.338;2024-02-23T08:47:20;1773.88;;;999.90;;
2762;SDS011;1389;51.490;7.338;2024-02-23T08:49:47;1999.90;;;999.90;;
2762;SDS011;1389;51.490;7.338;2024-02-23T08:52:14;1999.90;;;999.90;;
2762;SDS011;1389;51.490;7.338;2024-02-23T08:54:40;1999.90;;;999.90;;
2762;SDS011;1389;51.490;7.338;2024-02-23T08:57:06;1999.90;;;999.90;;
2762;SDS011;1389;51.490;7.338;2024-02-23T08:59:33;1356.72;;;999.90;;
2762;SDS011;1389;51.490;7.338;2024-02-23T09:01:59;1999.90;;;999.90;;
2762;SDS011;1389;51.490;7.338;2024-02-23T09:04:25;1331.10;;;999.90;;
2762;SDS011;1389;51.490;7.338;2024-02-23T09:06:52;1999.90;;;999.90;;
2762;SDS011;1389;51.490;7.338;2024-02-23T09:09:19;1999.90;;;999.90;;
2762;SDS011;1389;51.490;7.338;2024-02-23T09:11:45;1999.90;;;999.90;;
2762;SDS011;1389;51.490;7.338;2024-02-23T09:14:12;1654.38;;;897.00;;
2762;SDS011;1389;51.490;7.338;2024-02-23T09:16:38;1573.45;;;999.90;;
2762;SDS011;1389;51.490;7.338;2024-02-23T09:19:05;1999.90;;;999.90;;
2762;SDS011;1389;51.490;7.338;2024-02-23T09:21:31;1343.95;;;999.90;;
2762;SDS011;1389;51.490;7.338;2024-02-23T09:23:58;1999.90;;;999.90;;
2762;SDS011;1389;51.490;7.338;2024-02-23T09:26:24;1540.00;;;999.90;;
2762;SDS011;1389;51.490;7.338;2024-02-23T09:28:51;1999.90;;;999.90;;
2762;SDS011;1389;51.490;7.338;2024-02-23T09:31:18;1999.90;;;999.90;;
2762;SDS011;1389;51.490;7.338;2024-02-23T09:33:45;1999.90;;;999.90;;
2762;SDS011;1389;51.490;7.338;2024-02-23T09:36:12;1655.90;;;898.45;;
2762;SDS011;1389;51.490;7.338;2024-02-23T09:38:38;1216.45;;;932.28;;
2762;SDS011;1389;51.490;7.338;2024-02-23T09:41:05;1999.90;;;999.90;;
2762;SDS011;1389;51.490;7.338;2024-02-23T09:43:35;1352.70;;;999.90;;
2762;SDS011;1389;51.490;7.338;2024-02-23T09:46:02;1999.90;;;999.90;;
2762;SDS011;1389;51.490;7.338;2024-02-23T09:48:28;1458.70;;;936.83;;
2762;SDS011;1389;51.490;7.338;2024-02-23T09:50:59;1999.90;;;999.90;;
2762;SDS011;1389;51.490;7.338;2024-02-23T09:53:25;1999.90;;;999.90;;
2762;SDS011;1389;51.490;7.338;2024-02-23T09:55:52;1999.90;;;999.90;;
2762;SDS011;1389;51.490;7.338;2024-02-23T09:58:19;1999.90;;;999.90;;
2762;SDS011;1389;51.490;7.338;2024-02-23T10:00:46;1999.90;;;999.90;;
2762;SDS011;1389;51.490;7.338;2024-02-23T10:03:13;1999.90;;;999.90;;
2762;SDS011;1389;51.490;7.338;2024-02-23T10:05:39;1297.83;;;934.40;;
2762;SDS011;1389;51.490;7.338;2024-02-23T10:08:06;1999.90;;;999.90;;
2762;SDS011;1389;51.490;7.338;2024-02-23T10:10:33;1189.03;;;906.17;;
2762;SDS011;1389;51.490;7.338;2024-02-23T10:13:00;1999.90;;;999.90;;
2762;SDS011;1389;51.490;7.338;2024-02-23T10:15:28;1999.90;;;999.90;;
2762;SDS011;1389;51.490;7.338;2024-02-23T10:17:56;1999.90;;;999.90;;
2762;SDS011;1389;51.490;7.338;2024-02-23T10:20:25;1999.90;;;999.90;;
2762;SDS011;1389;51.490;7.338;2024-02-23T10:22:51;1999.90;;;999.90;;
2762;SDS011;1389;51.490;7.338;2024-02-23T10:25:19;1623.50;;;867.60;;
2762;SDS011;1389;51.490;7.338;2024-02-23T10:27:45;1480.85;;;957.92;;
2762;SDS011;1389;51.490;7.338;2024-02-23T10:30:12;1999.90;;;999.90;;
2762;SDS011;1389;51.490;7.338;2024-02-23T10:32:41;1300.53;;;936.97;;
2762;SDS011;1389;51.490;7.338;2024-02-23T10:35:09;1999.90;;;999.90;;
2762;SDS011;1389;51.490;7.338;2024-02-23T10:37:36;1191.75;;;908.75;;
2762;SDS011;1389;51.490;7.338;2024-02-23T10:40:02;1999.90;;;999.90;;
2762;SDS011;1389;51.490;7.338;2024-02-23T10:42:33;1728.70;;;967.80;;
2762;SDS011;1389;51.490;7.338;2024-02-23T10:45:01;1999.90;;;999.90;;
2762;SDS011;1389;51.490;7.338;2024-02-23T10:47:30;1999.90;;;999.90;;
2762;SDS011;1389;51.490;7.338;2024-02-23T10:49:57;1999.90;;;999.90;;
2762;SDS011;1389;51.490;7.338;2024-02-23T10:52:28;1999.90;;;999.90;;
2762;SDS011;1389;51.490;7.338;2024-02-23T10:54:54;1999.90;;;999.90;;
2762;SDS011;1389;51.490;7.338;2024-02-23T10:57:21;1626.82;;;870.78;;
2762;SDS011;1389;51.490;7.338;2024-02-23T10:59:48;1216.20;;;932.05;;
2762;SDS011;1389;51.490;7.338;2024-02-23T11:02:14;1999.90;;;999.90;;
2762;SDS011;1389;51.490;7.338;2024-02-23T11:04:45;1218.30;;;934.08;;
2762;SDS011;1389;51.490;7.338;2024-02-23T11:07:16;1999.90;;;999.90;;
2762;SDS011;1389;51.490;7.338;2024-02-23T11:09:54;1221.50;;;937.10;;
2762;SDS011;1389;51.490;7.338;2024-02-23T11:12:24;1611.95;;;856.60;;
2762;SDS011;1389;51.490;7.338;2024-02-23T11:14:51;1598.63;;;919.30;;
2762;SDS011;1389;51.490;7.338;2024-02-23T11:17:17;1999.90;;;999.90;;
2762;SDS011;1389;51.490;7.338;2024-02-23T11:19:50;1098.00;;;819.47;;
2762;SDS011;1389;51.490;7.338;2024-02-23T11:22:23;1999.90;;;999.90;;
2762;SDS011;1389;51.490;7.338;2024-02-23T11:24:51;1197.17;;;838.53;;
2762;SDS011;1389;51.490;7.338;2024-02-23T11:27:17;1999.90;;;999.90;;
2762;SDS011;1389;51.490;7.338;2024-02-23T11:29:47;1083.57;;;805.75;;
2762;SDS011;1389;51.490;7.338;2024-02-23T11:32:16;1999.90;;;999.90;;
2762;SDS011;1389;51.490;7.338;2024-02-23T11:34:58;1999.90;;;999.90;;
2762;SDS011;1389;51.490;7.338;2024-02-23T11:37:28;1694.57;;;935.30;;
2762;SDS011;1389;51.490;7.338;2024-02-23T11:39:59;1999.90;;;999.90;;
2762;SDS011;1389;51.490;7.338;2024-02-23T11:42:25;1999.90;;;999.90;;
2762;SDS011;1389;51.490;7.338;2024-02-23T11:44:53;1999.90;;;999.90;;
2762;SDS011;1389;51.490;7.338;2024-02-23T11:47:19;1999.90;;;999.90;;
2762;SDS011;1389;51.490;7.338;2024-02-23T11:49:46;1999.90;;;999.90;;
2762;SDS011;1389;51.490;7.338;2024-02-23T11:52:12;1999.90;;;999.90;;
2762;SDS011;1389;51.490;7.338;2024-02-23T11:54:38;1999.90;;;999.90;;
2762;SDS011;1389;51.490;7.338;2024-02-23T11:57:05;1999.90;;;999.90;;
2762;SDS011;1389;51.490;7.338;2024-02-23T11:59:32;1999.90;;;999.90;;
2762;SDS011;1389;51.490;7.338;2024-02-23T12:01:58;1999.90;;;999.90;;
2762;SDS011;1389;51.490;7.338;2024-02-23T12:04:26;1999.90;;;999.90;;
2762;SDS011;1389;51.490;7.338;2024-02-23T12:06:54;1999.90;;;999.90;;
2762;SDS011;1389;51.490;7.338;2024-02-23T12:09:21;1999.90;;;999.90;;
2762;SDS011;1389;51.490;7.338;2024-02-23T12:11:47;1999.90;;;999.90;;
2762;SDS011;1389;51.490;7.338;2024-02-23T12:14:14;1999.90;;;999.90;;
2762;SDS011;1389;51.490;7.338;2024-02-23T12:16:40;1999.90;;;999.90;;
2762;SDS011;1389;51.490;7.338;2024-02-23T12:19:07;1999.90;;;999.90;;
2762;SDS011;1389;51.490;7.338;2024-02-23T12:21:34;1999.90;;;999.90;;
2762;SDS011;1389;51.490;7.338;2024-02-23T12:24:04;1999.90;;;999.90;;
2762;SDS011;1389;51.490;7.338;2024-02-23T12:26:33;1999.90;;;999.90;;
2762;SDS011;1389;51.490;7.338;2024-02-23T12:29:03;1999.90;;;999.90;;
2762;SDS011;1389;51.490;7.338;2024-02-23T12:31:31;1999.90;;;999.90;;
2762;SDS011;1389;51.490;7.338;2024-02-23T12:33:57;1999.90;;;999.90;;
2762;SDS011;1389;51.490;7.338;2024-02-23T12:36:24;1999.90;;;999.90;;
2762;SDS011;1389;51.490;7.338;2024-02-23T12:38:50;1999.90;;;999.90;;
2762;SDS011;1389;51.490;7.338;2024-02-23T12:41:17;1999.90;;;999.90;;
2762;SDS011;1389;51.490;7.338;2024-02-23T12:43:43;1999.90;;;999.90;;
2762;SDS011;1389;51.490;7.338;2024-02-23T12:46:09;1999.90;;;999.90;;
2762;SDS011;1389;51.490;7.338;2024-02-23T12:48:39;1999.90;;;999.90;;
2762;SDS011;1389;51.490;7.338;2024-02-23T12:51:05;1999.90;;;999.90;;
2762;SDS011;1389;51.490;7.338;2024-02-23T12:53:33;1999.90;;;999.90;;
2762;SDS011;1389;51.490;7.338;2024-02-23T12:56:11;1999.90;;;999.90;;
2762;SDS011;1389;51.490;7.338;2024-02-23T12:58:39;1999.90;;;999.90;;
2762;SDS011;1389;51.490;7.338;2024-02-23T13:01:06;1999.90;;;999.90;;
2762;SDS011;1389;51.490;7.338;2024-02-23T13:03:33;1999.90;;;999.90;;
2762;SDS011;1389;51.490;7.338;2024-02-23T13:05:59;1999.90;;;999.90;;
2762;SDS011;1389;51.490;7.338;2024-02-23T13:08:26;1999.90;;;999.90;;
2762;SDS011;1389;51.490;7.338;2024-02-23T13:10:53;1999.90;;;999.90;;
2762;SDS011;1389;51.490;7.338;2024-02-23T13:13:20;1999.90;;;999.90;;
2762;SDS011;1389;51.490;7.338;2024-02-23T13:15:47;1999.90;;;999.90;;
2762;SDS011;1389;51.490;7.338;2024-02-23T13:18:14;1999.90;;;999.90;;
2762;SDS011;1389;51.490;7.338;2024-02-23T13:20:41;1999.90;;;999.90;;
2762;SDS011;1389;51.490;7.338;2024-02-23T13:23:08;691.75;;;277.85;;
2762;SDS011;1389;51.490;7.338;2024-02-23T13:25:35;690.00;;;277.80;;
2762;SDS011;1389;51.490;7.338;2024-02-23T13:28:02;689.88;;;277.73;;
2762;SDS011;1389;51.490;7.338;2024-02-23T13:30:30;835.67;;;357.67;;
2762;SDS011;1389;51.490;7.338;2024-02-23T13:32:56;691.53;;;277.50;;
2762;SDS011;1389;51.490;7.338;2024-02-23T13:35:23;692.42;;;277.55;;
2762;SDS011;1389;51.490;7.338;2024-02-23T13:37:49;693.47;;;277.58;;
2762;SDS011;1389;51.490;7.338;2024-02-23T13:40:16;843.03;;;361.70;;
2762;SDS011;1389;51.490;7.338;2024-02-23T13:42:42;701.42;;;283.95;;
2762;SDS011;1389;51.490;7.338;2024-02-23T13:45:11;702.10;;;283.95;;
2762;SDS011;1389;51.490;7.338;2024-02-23T13:47:39;702.55;;;283.42;;
2762;SDS011;1389;51.490;7.338;2024-02-23T13:50:06;703.92;;;283.88;;
2762;SDS011;1389;51.490;7.338;2024-02-23T13:52:32;705.58;;;283.50;;
2762;SDS011;1389;51.490;7.338;2024-02-23T13:54:59;707.85;;;284.30;;
2762;SDS011;1389;51.490;7.338;2024-02-23T13:57:26;707.42;;;283.88;;
2762;SDS011;1389;51.490;7.338;2024-02-23T13:59:52;705.83;;;283.77;;
2762;SDS011;1389;51.490;7.338;2024-02-23T14:02:24;706.03;;;283.63;;
2762;SDS011;1389;51.490;7.338;2024-02-23T14:04:51;706.53;;;283.60;;
2762;SDS011;1389;51.490;7.338;2024-02-23T14:07:19;707.33;;;283.35;;